createdAt,value
2023-03-12T00:00:11.384Z,0.60
2023-03-12T00:02:38.361Z,0.60
2023-03-12T00:05:05.847Z,0.60
2023-03-12T00:07:32.954Z,0.60
2023-03-12T00:09:59.796Z,0.60
2023-03-12T00:12:26.604Z,0.60
2023-03-12T00:14:53.418Z,0.60
2023-03-12T00:17:20.249Z,0.60
2023-03-12T00:19:51.085Z,0.60
2023-03-12T00:22:18.007Z,0.60
2023-03-12T00:24:44.820Z,0.60
2023-03-12T00:27:11.605Z,0.60
2023-03-12T00:29:38.444Z,0.60
2023-03-12T00:32:05.567Z,0.50
2023-03-12T00:34:32.450Z,0.60
2023-03-12T00:36:59.267Z,0.50
2023-03-12T00:39:26.137Z,0.50
2023-03-12T00:41:53.393Z,0.50
2023-03-12T00:44:20.494Z,0.50
2023-03-12T00:46:47.373Z,0.60
2023-03-12T00:49:14.263Z,0.50
2023-03-12T00:51:41.114Z,0.40
2023-03-12T00:54:07.936Z,0.50
2023-03-12T00:56:34.781Z,0.50
2023-03-12T00:59:01.623Z,0.50
2023-03-12T01:01:28.466Z,0.40
2023-03-12T01:03:55.761Z,0.40
2023-03-12T01:06:22.676Z,0.40
2023-03-12T01:08:49.650Z,0.30
2023-03-12T01:11:21.986Z,0.30
2023-03-12T01:13:49.211Z,0.30
2023-03-12T01:16:16.072Z,0.30
2023-03-12T01:18:42.978Z,0.30
2023-03-12T01:21:09.971Z,0.30
2023-03-12T01:23:38.466Z,0.30
2023-03-12T01:26:05.298Z,0.30
2023-03-12T01:28:32.094Z,0.30
2023-03-12T01:30:58.902Z,0.30
2023-03-12T01:33:25.709Z,0.60
2023-03-12T01:35:52.615Z,0.30
2023-03-12T01:38:20.800Z,0.30
2023-03-12T01:40:47.685Z,0.30
2023-03-12T01:43:33.849Z,0.30
2023-03-12T01:46:14.397Z,0.20
2023-03-12T01:48:45.655Z,0.30
2023-03-12T01:51:14.995Z,0.30
2023-03-12T01:53:45.158Z,0.30
2023-03-12T01:56:13.645Z,0.30
2023-03-12T01:58:45.310Z,0.30
2023-03-12T02:01:14.124Z,0.30
2023-03-12T02:03:41.886Z,0.40
2023-03-12T02:06:14.256Z,0.30
2023-03-12T02:08:45.316Z,0.40
2023-03-12T02:11:12.205Z,0.40
2023-03-12T02:13:39.685Z,0.40
2023-03-12T02:16:07.187Z,0.40
2023-03-12T02:18:35.541Z,0.40
2023-03-12T02:21:20.119Z,0.40
2023-03-12T02:24:24.670Z,0.40
2023-03-12T02:26:52.198Z,0.50
2023-03-12T02:29:19.374Z,0.60
2023-03-12T02:31:54.877Z,0.50
2023-03-12T02:34:21.807Z,0.40
2023-03-12T02:36:49.488Z,0.50
2023-03-12T02:39:16.772Z,0.50
2023-03-12T02:41:48.515Z,0.50
2023-03-12T02:44:22.484Z,0.50
2023-03-12T02:46:52.469Z,0.50
2023-03-12T02:49:23.350Z,0.60
2023-03-12T02:51:50.332Z,0.60
2023-03-12T02:54:19.142Z,0.60
2023-03-12T02:56:46.522Z,0.60
2023-03-12T02:59:14.620Z,0.60
2023-03-12T03:01:44.344Z,0.60
2023-03-12T03:04:12.467Z,0.60
2023-03-12T03:06:43.962Z,0.60
2023-03-12T03:09:11.031Z,0.60
2023-03-12T03:11:37.970Z,0.60
2023-03-12T03:14:06.928Z,0.70
2023-03-12T03:16:34.509Z,0.70
2023-03-12T03:19:01.732Z,0.70
2023-03-12T03:21:29.277Z,0.70
2023-03-12T03:23:56.239Z,0.70
2023-03-12T03:26:24.214Z,0.70
2023-03-12T03:28:51.616Z,0.70
2023-03-12T03:31:19.035Z,0.70
2023-03-12T03:33:45.958Z,0.70
2023-03-12T03:36:14.919Z,0.70
2023-03-12T03:38:44.215Z,0.80
2023-03-12T03:41:11.093Z,0.70
2023-03-12T03:43:37.883Z,0.70
2023-03-12T03:46:06.135Z,0.80
2023-03-12T03:48:33.054Z,0.80
2023-03-12T03:51:01.495Z,0.80
2023-03-12T03:53:28.570Z,0.80
2023-03-12T03:55:55.553Z,0.70
2023-03-12T03:58:22.479Z,0.70
2023-03-12T04:00:49.301Z,0.70
2023-03-12T04:03:17.411Z,0.80
2023-03-12T04:05:45.392Z,0.80
2023-03-12T04:08:13.420Z,0.80
2023-03-12T04:10:40.849Z,0.80
2023-03-12T04:13:07.739Z,0.80
2023-03-12T04:15:34.812Z,1.30
2023-03-12T04:18:01.943Z,0.80
2023-03-12T04:20:28.791Z,0.80
2023-03-12T04:22:55.672Z,0.80
2023-03-12T04:25:22.484Z,0.80
2023-03-12T04:27:49.324Z,0.90
2023-03-12T04:30:16.224Z,0.90
2023-03-12T04:32:43.172Z,0.90
2023-03-12T04:35:10.048Z,0.90
2023-03-12T04:37:36.894Z,0.90
2023-03-12T04:40:07.513Z,0.90
2023-03-12T04:42:35.943Z,0.90
2023-03-12T04:45:06.231Z,1.10
2023-03-12T04:47:33.735Z,0.90
2023-03-12T04:50:00.902Z,0.90
2023-03-12T04:52:27.727Z,0.90
2023-03-12T04:54:55.037Z,1.00
2023-03-12T04:57:22.439Z,0.90
2023-03-12T04:59:49.254Z,0.90
2023-03-12T05:02:16.050Z,0.90
2023-03-12T05:04:43.103Z,0.90
2023-03-12T05:07:09.982Z,0.90
2023-03-12T05:09:36.796Z,0.90
2023-03-12T05:12:03.910Z,0.90
2023-03-12T05:14:30.712Z,0.90
2023-03-12T05:16:57.514Z,0.90
2023-03-12T05:19:24.297Z,1.00
2023-03-12T05:21:51.138Z,1.00
2023-03-12T05:24:19.024Z,1.00
2023-03-12T05:26:45.840Z,1.00
2023-03-12T05:29:12.688Z,1.00
2023-03-12T05:31:39.548Z,1.00
2023-03-12T05:34:06.801Z,1.00
2023-03-12T05:36:33.684Z,1.20
2023-03-12T05:39:00.505Z,1.00
2023-03-12T05:41:29.468Z,1.00
2023-03-12T05:43:57.610Z,1.00
2023-03-12T05:46:26.595Z,1.00
2023-03-12T05:48:53.771Z,1.00
2023-03-12T05:51:21.226Z,1.00
2023-03-12T05:53:48.403Z,1.00
2023-03-12T05:56:17.814Z,1.10
2023-03-12T05:58:45.053Z,1.10
2023-03-12T06:01:23.677Z,1.10
2023-03-12T06:03:50.698Z,1.10
2023-03-12T06:06:18.558Z,1.10
2023-03-12T06:08:45.551Z,1.10
2023-03-12T06:11:13.304Z,1.10
2023-03-12T06:13:41.009Z,1.20
2023-03-12T06:16:11.887Z,1.20
2023-03-12T06:18:38.805Z,1.20
2023-03-12T06:21:27.197Z,1.20
2023-03-12T06:23:54.386Z,1.20
2023-03-12T06:26:22.637Z,1.20
2023-03-12T06:28:50.989Z,1.20
2023-03-12T06:31:19.000Z,1.20
2023-03-12T06:33:46.327Z,1.20
2023-03-12T06:36:13.541Z,1.30
2023-03-12T06:38:41.876Z,1.20
2023-03-12T06:41:14.772Z,1.30
2023-03-12T06:43:42.885Z,1.30
2023-03-12T06:46:13.099Z,1.30
2023-03-12T06:48:41.686Z,1.30
2023-03-12T06:51:10.575Z,1.30
2023-03-12T06:53:39.372Z,1.30
2023-03-12T06:56:08.241Z,1.40
2023-03-12T06:58:35.013Z,1.40
2023-03-12T07:01:01.837Z,1.40
2023-03-12T07:03:28.738Z,1.30
2023-03-12T07:05:57.004Z,1.40
2023-03-12T07:08:24.531Z,1.40
2023-03-12T07:10:51.392Z,1.40
2023-03-12T07:13:18.470Z,1.40
2023-03-12T07:15:46.588Z,1.40
2023-03-12T07:18:14.077Z,1.40
2023-03-12T07:20:43.314Z,1.40
2023-03-12T07:23:11.103Z,1.50
2023-03-12T07:25:40.203Z,1.50
2023-03-12T07:28:08.100Z,1.50
2023-03-12T07:30:35.078Z,1.40
2023-03-12T07:33:06.521Z,1.50
2023-03-12T07:35:33.545Z,1.50
2023-03-12T07:38:01.600Z,1.50
2023-03-12T07:40:29.122Z,1.50
2023-03-12T07:42:55.989Z,1.50
2023-03-12T07:45:23.327Z,1.50
2023-03-12T07:47:50.565Z,1.50
2023-03-12T07:50:18.347Z,1.60
2023-03-12T07:52:46.862Z,1.70
2023-03-12T07:55:14.591Z,1.50
2023-03-12T07:57:44.611Z,1.60
2023-03-12T08:00:12.307Z,1.60
2023-03-12T08:02:40.855Z,1.60
2023-03-12T08:05:08.092Z,1.60
2023-03-12T08:07:35.998Z,1.60
2023-03-12T08:10:05.813Z,1.60
2023-03-12T08:12:32.920Z,1.60
2023-03-12T08:14:59.883Z,1.60
2023-03-12T08:17:26.776Z,1.60
2023-03-12T08:19:54.170Z,1.60
2023-03-12T08:22:21.274Z,1.70
2023-03-12T08:24:48.163Z,1.60
2023-03-12T08:27:15.349Z,1.60
2023-03-12T08:29:42.320Z,1.70
2023-03-12T08:32:12.373Z,1.70
2023-03-12T08:34:39.420Z,1.60
2023-03-12T08:37:06.451Z,1.70
2023-03-12T08:39:33.517Z,1.60
2023-03-12T08:42:00.944Z,1.60
2023-03-12T08:44:27.947Z,1.60
2023-03-12T08:46:55.077Z,1.60
2023-03-12T08:49:23.108Z,1.60
2023-03-12T08:51:51.832Z,2.00
2023-03-12T08:57:32.689Z,1.80
2023-03-12T08:59:59.562Z,1.80
2023-03-12T09:02:27.507Z,1.70
2023-03-12T09:04:57.930Z,2.30
2023-03-12T09:07:25.079Z,1.70
2023-03-12T09:09:54.207Z,1.80
2023-03-12T09:12:22.094Z,1.90
2023-03-12T09:15:03.031Z,1.30
2023-03-12T09:17:30.771Z,2.30
2023-03-12T09:20:20.598Z,2.40
2023-03-12T09:22:47.865Z,1.80
2023-03-12T09:25:15.351Z,1.80
2023-03-12T09:27:45.118Z,1.90
2023-03-12T09:30:18.350Z,1.70
2023-03-12T09:32:46.026Z,1.70
2023-03-12T09:38:05.318Z,2.10
2023-03-12T09:40:36.447Z,2.10
2023-03-12T09:43:17.552Z,1.80
2023-03-12T09:46:17.748Z,1.80
2023-03-12T09:48:47.515Z,1.70
2023-03-12T09:51:20.634Z,1.80
2023-03-12T09:54:00.336Z,1.80
2023-03-12T09:56:27.515Z,2.00
2023-03-12T09:58:55.721Z,1.80
2023-03-12T10:01:50.572Z,1.80
2023-03-12T10:04:23.200Z,1.80
2023-03-12T10:07:19.583Z,1.80
2023-03-12T10:10:11.390Z,1.80
2023-03-12T10:13:06.069Z,1.80
2023-03-12T10:15:51.546Z,1.80
2023-03-12T10:18:55.894Z,1.70
2023-03-12T10:21:23.138Z,1.80
2023-03-12T10:24:11.069Z,1.80
2023-03-12T10:26:49.886Z,1.80
2023-03-12T10:29:21.978Z,1.90
2023-03-12T10:32:04.291Z,2.00
2023-03-12T10:34:35.238Z,2.00
2023-03-12T10:37:27.044Z,1.90
2023-03-12T10:40:00.560Z,2.00
2023-03-12T10:42:29.695Z,2.00
2023-03-12T10:45:13.398Z,2.00
2023-03-12T10:47:41.920Z,2.00
2023-03-12T10:50:29.425Z,2.00
2023-03-12T10:53:32.799Z,2.00
2023-03-12T10:56:02.897Z,2.10
2023-03-12T10:58:38.581Z,2.10
2023-03-12T11:01:15.937Z,2.20
2023-03-12T11:03:44.037Z,2.20
2023-03-12T11:06:21.605Z,2.20
2023-03-12T11:09:15.854Z,2.20
2023-03-12T11:11:45.412Z,2.30
2023-03-12T11:14:24.254Z,2.30
2023-03-12T11:16:53.218Z,2.30
2023-03-12T11:19:32.186Z,2.40
2023-03-12T11:22:02.558Z,2.40
2023-03-12T11:24:29.980Z,2.40
2023-03-12T11:27:07.518Z,2.40
2023-03-12T11:29:48.673Z,2.60
2023-03-12T11:32:35.375Z,2.70
2023-03-12T11:35:02.768Z,2.60
2023-03-12T11:37:48.544Z,2.60
2023-03-12T11:40:18.376Z,2.90
2023-03-12T11:43:12.299Z,2.80
2023-03-12T11:45:57.238Z,2.80
2023-03-12T11:48:50.998Z,2.80
2023-03-12T11:51:17.809Z,2.80
2023-03-12T11:54:03.588Z,2.90
2023-03-12T11:57:02.053Z,3.00
2023-03-12T12:00:13.567Z,3.00
2023-03-12T12:02:58.670Z,3.00
2023-03-12T12:05:48.819Z,3.10
2023-03-12T12:09:12.995Z,3.40
2023-03-12T12:11:51.969Z,3.20
2023-03-12T12:15:03.679Z,3.40
2023-03-12T12:17:46.289Z,3.40
2023-03-12T12:20:22.452Z,3.50
2023-03-12T12:23:27.719Z,3.60
2023-03-12T12:26:00.454Z,3.70
2023-03-12T12:28:46.094Z,3.80
2023-03-12T12:31:22.079Z,3.90
2023-03-12T12:34:01.390Z,4.00
2023-03-12T12:36:33.816Z,4.10
2023-03-12T12:39:15.315Z,4.20
2023-03-12T12:41:50.034Z,4.30
2023-03-12T12:44:30.204Z,4.30
2023-03-12T12:47:05.426Z,4.50
2023-03-12T12:49:48.913Z,4.60
2023-03-12T12:52:21.062Z,4.70
2023-03-12T12:55:02.681Z,4.70
2023-03-12T12:57:47.386Z,4.70
2023-03-12T13:00:44.111Z,4.90
2023-03-12T13:03:21.047Z,5.00
2023-03-12T13:05:57.586Z,5.30
2023-03-12T13:08:39.925Z,5.10
2023-03-12T13:11:20.301Z,5.20
2023-03-12T13:14:03.595Z,5.50
2023-03-12T13:16:36.743Z,5.40
2023-03-12T13:19:06.692Z,5.50
2023-03-12T13:21:40.754Z,5.60
2023-03-12T13:24:55.206Z,5.70
2023-03-12T13:27:37.848Z,5.70
2023-03-12T13:30:32.673Z,5.80
2023-03-12T13:33:01.335Z,5.80
2023-03-12T13:35:36.645Z,5.80
2023-03-12T13:38:12.329Z,5.90
2023-03-12T13:40:54.526Z,5.90
2023-03-12T13:43:39.754Z,6.10
2023-03-12T13:46:20.663Z,6.00
2023-03-12T13:48:49.247Z,6.10
2023-03-12T13:51:23.216Z,6.50
2023-03-12T13:53:56.840Z,6.20
2023-03-12T13:56:32.257Z,6.20
2023-03-12T13:59:07.306Z,6.30
2023-03-12T14:01:44.565Z,6.30
2023-03-12T14:04:23.557Z,6.40
2023-03-12T14:06:59.147Z,6.40
2023-03-12T14:09:53.103Z,6.40
2023-03-12T14:12:26.839Z,6.50
2023-03-12T14:15:41.951Z,6.60
2023-03-12T14:18:24.681Z,6.70
2023-03-12T14:21:00.703Z,6.80
2023-03-12T14:23:34.081Z,7.00
2023-03-12T14:26:04.336Z,7.10
2023-03-12T14:28:34.015Z,7.20
2023-03-12T14:31:09.867Z,7.10
2023-03-12T14:33:58.244Z,7.10
2023-03-12T14:36:29.307Z,7.10
2023-03-12T14:39:22.629Z,7.20
2023-03-12T14:41:58.635Z,7.30
2023-03-12T14:44:28.152Z,7.40
2023-03-12T14:47:12.500Z,7.40
2023-03-12T14:49:42.267Z,7.40
2023-03-12T14:52:20.583Z,7.50
2023-03-12T14:55:08.329Z,7.50
2023-03-12T14:57:35.293Z,7.50
2023-03-12T15:00:02.250Z,7.60
2023-03-12T15:02:31.251Z,7.60
2023-03-12T15:05:01.486Z,7.50
2023-03-12T15:07:35.862Z,7.50
2023-03-12T15:10:06.090Z,7.50
2023-03-12T15:12:38.125Z,7.50
2023-03-12T15:15:11.693Z,7.50
2023-03-12T15:17:38.802Z,7.60
2023-03-12T15:20:09.453Z,7.60
2023-03-12T15:22:37.715Z,7.60
2023-03-12T15:25:25.205Z,7.60
2023-03-12T15:28:35.033Z,7.60
2023-03-12T15:34:01.906Z,7.70
2023-03-12T15:36:30.966Z,7.70
2023-03-12T15:39:06.465Z,7.70
2023-03-12T15:42:05.552Z,7.70
2023-03-12T15:44:44.897Z,7.70
2023-03-12T15:47:15.286Z,7.80
2023-03-12T15:49:42.482Z,7.80
2023-03-12T15:53:22.198Z,7.80
2023-03-12T15:56:20.471Z,7.80
2023-03-12T15:58:47.539Z,7.80
2023-03-12T16:01:28.204Z,7.90
2023-03-12T16:03:55.525Z,7.80
2023-03-12T16:06:26.518Z,7.80
2023-03-12T16:09:03.866Z,7.80
2023-03-12T16:11:33.211Z,7.80
2023-03-12T16:14:08.230Z,7.80
2023-03-12T16:19:40.368Z,7.80
2023-03-12T16:22:13.345Z,7.80
2023-03-12T16:24:40.587Z,7.80
2023-03-12T16:27:18.109Z,7.90
2023-03-12T16:29:47.690Z,8.00
2023-03-12T16:32:16.437Z,7.90
2023-03-12T16:34:45.001Z,7.90
2023-03-12T16:37:17.315Z,7.90
2023-03-12T16:39:57.796Z,7.80
2023-03-12T16:42:24.725Z,7.80
2023-03-12T16:44:52.902Z,7.90
2023-03-12T16:47:19.867Z,7.80
2023-03-12T16:49:53.662Z,7.80
2023-03-12T16:52:28.726Z,7.80
2023-03-12T16:55:03.568Z,7.80
2023-03-12T16:57:53.314Z,7.80
2023-03-12T17:00:22.595Z,7.90
2023-03-12T17:02:52.590Z,7.90
2023-03-12T17:05:19.530Z,7.80
2023-03-12T17:07:46.737Z,7.90
2023-03-12T17:10:16.366Z,7.90
2023-03-12T17:12:44.025Z,7.80
2023-03-12T17:15:25.274Z,8.00
2023-03-12T17:17:59.041Z,7.80
2023-03-12T17:20:26.330Z,7.80
2023-03-12T17:25:49.580Z,7.80
2023-03-12T17:28:16.476Z,7.80
2023-03-12T17:30:43.886Z,7.80
2023-03-12T17:33:23.703Z,7.80
2023-03-12T17:36:02.290Z,7.80
2023-03-12T17:38:35.236Z,7.80
2023-03-12T17:41:09.345Z,7.80
2023-03-12T17:43:38.434Z,7.80
2023-03-12T17:46:08.386Z,7.80
2023-03-12T17:48:35.855Z,7.80
